Time;durP1;ratioP1;P1;durP2;ratioP2;P2;SDS_P1;SDS_P2;PMS_P1;PMS_P2;Temp;Humidity;BMP_temperature;BMP_pressure;BME280_temperature;BME280_humidity;BME280_pressure;Samples;Min_cycle;Max_cycle;Signal;HPM_P1;HPM_P2
2023/05/10 00:00:47;;;;;;;0.10;0.10;;;11.90;99.90;;;;;;5018750;28;20430;-77
2023/05/10 00:03:16;;;;;;;0.10;0.10;;;11.90;99.90;;;;;;5021619;28;20526;-77
2023/05/10 00:05:44;;;;;;;0.00;0.00;;;11.90;99.90;;;;;;5018652;28;20802;-77
2023/05/10 00:08:11;;;;;;;0.00;0.00;;;11.90;99.90;;;;;;5020267;28;20890;-78
2023/05/10 00:10:38;;;;;;;0.10;0.10;;;11.90;99.90;;;;;;5022819;28;20442;-79
2023/05/10 00:13:04;;;;;;;0.10;0.10;;;11.90;99.90;;;;;;5020524;28;20435;-77
2023/05/10 00:15:31;;;;;;;0.00;0.00;;;11.90;99.90;;;;;;5020457;28;20438;-77
2023/05/10 00:17:58;;;;;;;0.20;0.10;;;11.90;99.90;;;;;;5023040;28;20435;-78
2023/05/10 00:20:27;;;;;;;0.10;0.10;;;11.90;99.90;;;;;;5015772;28;20426;-78
2023/05/10 00:22:54;;;;;;;0.10;0.10;;;11.90;99.90;;;;;;5017593;28;20438;-78
2023/05/10 00:25:21;;;;;;;0.00;0.00;;;11.90;99.90;;;;;;5015337;28;20814;-78
2023/05/10 00:27:49;;;;;;;0.00;0.00;;;11.80;99.90;;;;;;5020510;28;20538;-78
2023/05/10 00:30:16;;;;;;;0.00;0.00;;;11.80;99.90;;;;;;5022230;28;20430;-78
2023/05/10 00:32:43;;;;;;;0.10;0.10;;;11.80;99.90;;;;;;5018768;28;20437;-79
2023/05/10 00:35:10;;;;;;;0.10;0.10;;;11.80;99.90;;;;;;5011068;28;20773;-77
2023/05/10 00:37:37;;;;;;;0.10;0.10;;;11.80;99.90;;;;;;5010928;28;20522;-78
2023/05/10 00:40:04;;;;;;;0.00;0.00;;;11.80;99.90;;;;;;5015064;28;20435;-78
2023/05/10 00:42:31;;;;;;;0.00;0.00;;;11.70;99.90;;;;;;5020538;28;20438;-77
2023/05/10 00:44:58;;;;;;;0.00;0.00;;;11.70;99.90;;;;;;5019228;28;20439;-77
2023/05/10 00:47:25;;;;;;;0.10;0.10;;;11.70;99.90;;;;;;5022271;28;20435;-78
2023/05/10 00:49:55;;;;;;;0.10;0.10;;;11.70;99.90;;;;;;5018833;28;20426;-77
2023/05/10 00:52:23;;;;;;;0.60;0.22;;;11.70;99.90;;;;;;5016765;28;20438;-78
2023/05/10 00:54:53;;;;;;;0.17;0.10;;;11.70;99.90;;;;;;5021483;28;20437;-78
2023/05/10 00:57:19;;;;;;;0.00;0.00;;;11.70;99.90;;;;;;5020148;28;20435;-78
2023/05/10 00:59:46;;;;;;;0.00;0.00;;;11.70;99.90;;;;;;5021417;28;20481;-78
2023/05/10 01:02:13;;;;;;;0.00;0.00;;;11.70;99.90;;;;;;5016797;28;20434;-77
2023/05/10 01:04:40;;;;;;;0.10;0.08;;;11.70;99.90;;;;;;5020451;28;20438;-78
2023/05/10 01:07:10;;;;;;;0.08;0.08;;;11.70;99.90;;;;;;5020161;28;20431;-78
2023/05/10 01:09:37;;;;;;;0.00;0.00;;;11.70;99.90;;;;;;5037102;28;20439;-78
2023/05/10 01:12:06;;;;;;;0.00;0.00;;;11.70;99.90;;;;;;5018498;28;20431;-77
2023/05/10 01:14:36;;;;;;;0.00;0.00;;;11.60;99.90;;;;;;5022250;28;20435;-77
2023/05/10 01:17:04;;;;;;;0.05;0.05;;;11.60;99.90;;;;;;5022601;28;20448;-77
2023/05/10 01:19:35;;;;;;;0.10;0.10;;;11.60;99.90;;;;;;5019628;28;20860;-77
2023/05/10 01:22:49;;;;;;;0.00;0.00;;;11.60;99.90;;;;;;5025119;28;20489;-77
2023/05/10 01:25:56;;;;;;;0.05;0.05;;;11.60;99.90;;;;;;4955674;28;20470;-77
2023/05/10 01:28:44;;;;;;;0.10;0.10;;;11.60;99.90;;;;;;5025240;28;20447;-77
2023/05/10 01:31:23;;;;;;;0.30;0.30;;;11.60;99.90;;;;;;5016026;28;20443;-77
2023/05/10 01:34:00;;;;;;;0.20;0.20;;;11.70;99.90;;;;;;5040536;28;20439;-77
2023/05/10 01:36:32;;;;;;;0.00;0.00;;;11.70;99.90;;;;;;5019808;28;20439;-77
2023/05/10 01:39:03;;;;;;;0.10;0.10;;;11.70;99.90;;;;;;5027401;28;20443;-77
2023/05/10 01:41:55;;;;;;;0.00;0.00;;;11.60;99.90;;;;;;5022488;28;21008;-77
2023/05/10 01:44:39;;;;;;;0.00;0.00;;;11.60;99.90;;;;;;5014604;28;21096;-77
2023/05/10 01:47:19;;;;;;;0.20;0.10;;;11.60;99.90;;;;;;5022827;28;20510;-77
2023/05/10 01:49:50;;;;;;;0.00;0.00;;;11.60;99.90;;;;;;5037850;28;20431;-77
2023/05/10 01:52:26;;;;;;;0.10;0.10;;;11.50;99.90;;;;;;5023499;28;20457;-77
2023/05/10 01:55:01;;;;;;;0.10;0.10;;;11.50;99.90;;;;;;5020609;28;20438;-77
2023/05/10 01:57:36;;;;;;;0.03;0.03;;;11.50;99.90;;;;;;5025569;28;20438;-77
2023/05/10 02:00:06;;;;;;;0.00;0.00;;;11.60;99.90;;;;;;5019448;28;20441;-77
2023/05/10 02:02:41;;;;;;;0.00;0.00;;;11.50;99.90;;;;;;5021475;28;20431;-77
2023/05/10 02:05:14;;;;;;;0.10;0.10;;;11.50;99.90;;;;;;5025648;28;20434;-77
2023/05/10 02:07:44;;;;;;;0.08;0.08;;;11.50;99.90;;;;;;5028722;28;20846;-77
2023/05/10 02:10:13;;;;;;;0.10;0.10;;;11.50;99.90;;;;;;5021891;28;20439;-77
2023/05/10 02:12:43;;;;;;;0.10;0.10;;;11.50;99.90;;;;;;5025609;28;20502;-77
2023/05/10 02:15:12;;;;;;;0.10;0.10;;;11.50;99.90;;;;;;5027200;28;21209;-77
2023/05/10 02:17:40;;;;;;;0.10;0.10;;;11.50;99.90;;;;;;5020739;28;20514;-77
2023/05/10 02:20:08;;;;;;;0.10;0.10;;;11.50;99.90;;;;;;5023301;28;20445;-77
2023/05/10 02:22:36;;;;;;;0.00;0.00;;;11.40;99.90;;;;;;5011434;28;20453;-77
2023/05/10 02:25:04;;;;;;;0.10;0.10;;;11.40;99.90;;;;;;5024347;28;20439;-77
2023/05/10 02:27:34;;;;;;;0.08;0.08;;;11.40;99.90;;;;;;5022379;28;20431;-77
2023/05/10 02:30:02;;;;;;;0.10;0.10;;;11.40;99.90;;;;;;5023226;28;20443;-77
2023/05/10 02:32:29;;;;;;;0.10;0.10;;;11.40;99.90;;;;;;5019429;28;20427;-76
2023/05/10 02:34:58;;;;;;;0.10;0.10;;;11.40;99.90;;;;;;5022970;28;20504;-77
2023/05/10 02:37:26;;;;;;;0.10;0.00;;;11.40;99.90;;;;;;5023667;28;20430;-76
2023/05/10 02:39:56;;;;;;;0.00;0.00;;;11.40;99.90;;;;;;5017353;28;20438;-76
2023/05/10 02:42:28;;;;;;;0.00;0.00;;;11.40;99.90;;;;;;5023201;28;20447;-77
2023/05/10 02:45:00;;;;;;;0.10;0.10;;;11.40;99.90;;;;;;5015836;28;20439;-76
2023/05/10 02:47:28;;;;;;;0.00;0.00;;;11.40;99.90;;;;;;5013319;28;20435;-77
2023/05/10 02:49:55;;;;;;;0.10;0.10;;;11.50;99.90;;;;;;5026482;28;20941;-77
2023/05/10 02:52:27;;;;;;;0.00;0.00;;;11.50;99.90;;;;;;5020506;28;20427;-76
2023/05/10 02:55:02;;;;;;;0.10;0.10;;;11.40;99.90;;;;;;5022171;28;20900;-77
2023/05/10 02:57:46;;;;;;;0.10;0.10;;;11.40;99.90;;;;;;5018020;28;20521;-77
2023/05/10 03:00:13;;;;;;;0.10;0.10;;;11.40;99.90;;;;;;5020980;28;20438;-77
2023/05/10 03:02:41;;;;;;;0.10;0.10;;;11.40;99.90;;;;;;5017028;28;20964;-77
2023/05/10 03:05:10;;;;;;;0.00;0.00;;;11.40;99.90;;;;;;5018120;28;20431;-77
2023/05/10 03:07:37;;;;;;;0.20;0.20;;;11.40;99.90;;;;;;5021115;28;20445;-77
2023/05/10 03:10:05;;;;;;;0.50;0.30;;;11.40;99.90;;;;;;5019113;28;21110;-77
2023/05/10 03:13:08;;;;;;;0.20;0.10;;;11.40;99.90;;;;;;5023690;28;20442;-76
2023/05/10 03:15:56;;;;;;;0.20;0.20;;;11.40;99.90;;;;;;5019344;28;20493;-77
2023/05/10 03:18:36;;;;;;;0.00;0.00;;;11.40;99.90;;;;;;5026700;28;20462;-77
2023/05/10 03:21:06;;;;;;;0.10;0.10;;;11.40;99.90;;;;;;5019973;28;20457;-76
2023/05/10 03:23:40;;;;;;;0.05;0.05;;;11.40;99.90;;;;;;5023369;28;20434;-77
2023/05/10 03:26:20;;;;;;;0.10;0.10;;;11.50;99.90;;;;;;5021923;28;20434;-77
2023/05/10 03:28:48;;;;;;;0.10;0.10;;;11.50;99.90;;;;;;5025268;28;20442;-77
2023/05/10 03:31:15;;;;;;;0.10;0.10;;;11.40;99.90;;;;;;5020506;28;20445;-77
2023/05/10 03:33:47;;;;;;;0.10;0.10;;;11.40;99.90;;;;;;5022605;28;20806;-76
2023/05/10 03:36:16;;;;;;;0.10;0.10;;;11.40;99.90;;;;;;5019916;28;20913;-77
2023/05/10 03:38:43;;;;;;;0.10;0.10;;;11.30;99.90;;;;;;5023283;28;20474;-77
2023/05/10 03:41:09;;;;;;;0.10;0.10;;;11.30;99.90;;;;;;5019860;28;20849;-77
2023/05/10 03:43:36;;;;;;;0.10;0.10;;;11.30;99.90;;;;;;5019646;28;20435;-76
2023/05/10 03:46:04;;;;;;;0.70;0.10;;;11.30;99.90;;;;;;5020402;28;20431;-76
2023/05/10 03:48:32;;;;;;;0.10;0.10;;;11.40;99.90;;;;;;5023732;28;20462;-76
2023/05/10 03:50:59;;;;;;;0.03;0.03;;;11.40;99.90;;;;;;5019527;28;20905;-77
2023/05/10 03:53:26;;;;;;;0.00;0.00;;;11.40;99.90;;;;;;5020130;28;20447;-76
2023/05/10 03:55:53;;;;;;;0.10;0.10;;;11.50;99.90;;;;;;5018909;28;20430;-76
2023/05/10 03:58:20;;;;;;;0.15;0.15;;;11.50;99.90;;;;;;5009820;28;20802;-77
2023/05/10 04:00:46;;;;;;;0.10;0.10;;;11.50;99.90;;;;;;5022434;28;20517;-77
2023/05/10 04:03:13;;;;;;;0.10;0.10;;;11.50;99.90;;;;;;5013779;28;20864;-77
2023/05/10 04:05:40;;;;;;;0.10;0.10;;;11.50;99.90;;;;;;5014208;28;20470;-77
2023/05/10 04:08:07;;;;;;;0.13;0.13;;;11.60;99.90;;;;;;5015378;28;20430;-77
2023/05/10 04:10:34;;;;;;;0.05;0.05;;;11.60;99.90;;;;;;5014191;28;20998;-77
2023/05/10 04:13:01;;;;;;;0.10;0.10;;;11.60;99.90;;;;;;5035998;28;20430;-77
2023/05/10 04:15:27;;;;;;;0.10;0.10;;;11.60;99.90;;;;;;5019399;28;20442;-77
2023/05/10 04:17:57;;;;;;;0.10;0.10;;;11.70;99.90;;;;;;5023599;28;20763;-77
2023/05/10 04:20:24;;;;;;;0.10;0.10;;;11.70;99.90;;;;;;5037300;28;20439;-76
2023/05/10 04:22:50;;;;;;;0.10;0.10;;;11.70;99.90;;;;;;5029262;28;20434;-76
2023/05/10 04:25:17;;;;;;;0.10;0.10;;;11.80;99.90;;;;;;5022573;28;20443;-76
2023/05/10 04:27:47;;;;;;;0.20;0.20;;;11.80;99.90;;;;;;5023685;28;20427;-76
2023/05/10 04:30:14;;;;;;;0.10;0.10;;;11.80;99.90;;;;;;5022172;28;20434;-77
2023/05/10 04:32:41;;;;;;;0.20;0.20;;;11.80;99.90;;;;;;5024364;28;20439;-76
2023/05/10 04:35:09;;;;;;;0.28;0.28;;;11.80;99.90;;;;;;5021187;28;20457;-76
2023/05/10 04:37:36;;;;;;;0.20;0.20;;;11.90;99.90;;;;;;5020449;28;20447;-76
2023/05/10 04:40:04;;;;;;;0.10;0.10;;;11.90;99.90;;;;;;5016465;28;20444;-76
2023/05/10 04:42:30;;;;;;;0.20;0.20;;;12.00;99.90;;;;;;5024595;28;20917;-76
2023/05/10 04:44:57;;;;;;;0.10;0.10;;;12.00;99.90;;;;;;5020794;28;20953;-76
2023/05/10 04:47:24;;;;;;;0.20;0.20;;;12.00;99.90;;;;;;5015400;28;20448;-76
2023/05/10 04:49:50;;;;;;;0.35;0.17;;;12.00;99.90;;;;;;5022285;28;21073;-76
2023/05/10 04:52:17;;;;;;;0.20;0.20;;;12.00;99.90;;;;;;5021935;28;21479;-76
2023/05/10 04:54:44;;;;;;;0.20;0.20;;;12.00;99.90;;;;;;5027468;28;20492;-76
2023/05/10 04:57:11;;;;;;;0.20;0.20;;;11.90;99.90;;;;;;5018745;28;20814;-76
2023/05/10 04:59:37;;;;;;;0.30;0.30;;;11.90;99.90;;;;;;5016049;28;20439;-77
2023/05/10 05:02:05;;;;;;;0.20;0.20;;;11.80;99.90;;;;;;5025786;28;20931;-78
2023/05/10 05:04:32;;;;;;;0.30;0.30;;;11.80;99.90;;;;;;5020574;28;20435;-78
2023/05/10 05:06:58;;;;;;;0.30;0.30;;;11.80;99.90;;;;;;5023532;28;20436;-78
2023/05/10 05:09:25;;;;;;;0.20;0.20;;;11.80;99.90;;;;;;5026703;28;20465;-78
2023/05/10 05:11:52;;;;;;;0.17;0.17;;;11.80;99.90;;;;;;5020052;28;20565;-78
2023/05/10 05:14:20;;;;;;;0.40;0.40;;;11.80;99.90;;;;;;5019304;28;20431;-78
2023/05/10 05:16:50;;;;;;;0.13;0.13;;;11.90;99.90;;;;;;5021822;28;20636;-78
2023/05/10 05:19:17;;;;;;;0.30;0.30;;;11.90;99.90;;;;;;5023087;28;20427;-78
2023/05/10 05:21:44;;;;;;;0.20;0.20;;;12.00;99.90;;;;;;5026520;28;20430;-77
2023/05/10 05:24:12;;;;;;;0.45;0.13;;;12.00;99.90;;;;;;5034634;28;20901;-78
2023/05/10 05:26:39;;;;;;;0.50;0.40;;;12.00;99.90;;;;;;5029070;28;20487;-77
2023/05/10 05:29:06;;;;;;;0.70;0.22;;;11.90;99.90;;;;;;5028429;28;20977;-77
2023/05/10 05:31:33;;;;;;;0.38;0.38;;;12.00;99.90;;;;;;5023949;28;20431;-78
2023/05/10 05:34:00;;;;;;;0.30;0.30;;;12.10;99.90;;;;;;5021661;28;20445;-77
2023/05/10 05:36:27;;;;;;;0.30;0.30;;;12.00;99.90;;;;;;5023986;28;20438;-77
2023/05/10 05:38:53;;;;;;;1.45;0.47;;;12.00;99.90;;;;;;5019284;28;20449;-77
2023/05/10 05:41:21;;;;;;;0.30;0.30;;;12.10;99.90;;;;;;5016502;28;20430;-77
2023/05/10 05:43:48;;;;;;;0.22;0.22;;;12.20;99.90;;;;;;5031036;28;20439;-77
2023/05/10 05:46:15;;;;;;;0.30;0.30;;;12.30;99.90;;;;;;5026548;28;20434;-76
2023/05/10 05:48:41;;;;;;;0.30;0.30;;;12.50;99.90;;;;;;5025661;28;20446;-77
2023/05/10 05:51:08;;;;;;;0.20;0.20;;;12.60;99.90;;;;;;5018064;28;20784;-76
2023/05/10 05:53:35;;;;;;;0.20;0.20;;;12.80;99.90;;;;;;5033035;28;20507;-76
2023/05/10 05:56:02;;;;;;;0.30;0.30;;;12.90;99.90;;;;;;5021942;28;20450;-76
2023/05/10 05:58:29;;;;;;;0.17;0.17;;;13.10;99.90;;;;;;5021334;28;20438;-76
2023/05/10 06:00:56;;;;;;;1.40;0.50;;;13.30;99.90;;;;;;5021163;28;20455;-76
2023/05/10 06:03:25;;;;;;;0.30;0.30;;;13.50;99.90;;;;;;5017010;28;20439;-76
2023/05/10 06:05:52;;;;;;;0.20;0.20;;;13.60;99.90;;;;;;5013958;28;20441;-76
2023/05/10 06:08:19;;;;;;;0.40;0.40;;;13.60;99.90;;;;;;5018119;28;20957;-77
2023/05/10 06:10:45;;;;;;;0.30;0.30;;;13.60;99.90;;;;;;5022188;28;20508;-77
2023/05/10 06:13:12;;;;;;;0.40;0.40;;;13.80;99.90;;;;;;5018627;28;20432;-77
2023/05/10 06:15:39;;;;;;;0.50;0.40;;;13.90;99.90;;;;;;5022330;28;20765;-77
2023/05/10 06:18:06;;;;;;;0.20;0.20;;;14.10;99.90;;;;;;5018830;28;20466;-77
2023/05/10 06:20:33;;;;;;;0.30;0.30;;;14.00;99.90;;;;;;5025228;28;20434;-78
2023/05/10 06:22:59;;;;;;;0.38;0.38;;;14.00;99.90;;;;;;5022912;28;20442;-77
2023/05/10 06:25:26;;;;;;;0.30;0.30;;;14.00;99.90;;;;;;5021952;28;20515;-78
2023/05/10 06:27:57;;;;;;;0.40;0.40;;;14.00;99.90;;;;;;5018298;28;20462;-75
2023/05/10 06:30:28;;;;;;;0.43;0.20;;;13.80;99.90;;;;;;5014513;28;20432;-74
2023/05/10 06:32:55;;;;;;;0.30;0.30;;;13.80;99.90;;;;;;5019362;28;20435;-75
2023/05/10 06:35:22;;;;;;;0.15;0.15;;;14.00;99.90;;;;;;5023509;28;20522;-75
2023/05/10 06:37:49;;;;;;;1.10;0.30;;;14.00;99.90;;;;;;5018361;28;20443;-75
2023/05/10 06:40:16;;;;;;;0.30;0.30;;;14.20;99.90;;;;;;5022138;28;20431;-76
2023/05/10 06:42:44;;;;;;;0.37;0.37;;;14.50;99.90;;;;;;5025708;28;20506;-76
2023/05/10 06:45:12;;;;;;;0.40;0.40;;;14.70;99.90;;;;;;5019369;28;20447;-76
2023/05/10 06:47:39;;;;;;;2.20;0.60;;;14.80;99.90;;;;;;5016787;28;20434;-77
2023/05/10 06:50:11;;;;;;;0.30;0.30;;;14.90;99.90;;;;;;5019869;28;20480;-76
2023/05/10 06:52:41;;;;;;;0.32;0.28;;;14.50;99.90;;;;;;5016949;28;20462;-76
2023/05/10 06:55:11;;;;;;;0.60;0.60;;;14.30;99.90;;;;;;5023309;28;20965;-76
2023/05/10 06:57:37;;;;;;;0.30;0.30;;;14.30;99.90;;;;;;5013014;28;20889;-77
2023/05/10 07:00:06;;;;;;;0.70;0.20;;;14.10;99.90;;;;;;5019495;28;20450;-78
2023/05/10 07:02:33;;;;;;;0.40;0.40;;;14.10;99.90;;;;;;5020160;28;20449;-78
2023/05/10 07:05:00;;;;;;;0.40;0.40;;;14.10;99.90;;;;;;5015870;28;20473;-77
2023/05/10 07:07:29;;;;;;;0.30;0.30;;;14.10;99.90;;;;;;5017213;28;20818;-78
2023/05/10 07:09:58;;;;;;;0.40;0.40;;;14.40;99.90;;;;;;5010495;28;20439;-77
2023/05/10 07:12:25;;;;;;;0.40;0.40;;;14.50;99.90;;;;;;5017395;28;20514;-77
2023/05/10 07:14:52;;;;;;;1.20;0.40;;;14.80;99.90;;;;;;5019987;28;20466;-78
2023/05/10 07:17:21;;;;;;;0.28;0.28;;;15.00;99.90;;;;;;5021339;28;20435;-78
2023/05/10 07:19:48;;;;;;;0.60;0.60;;;15.00;99.90;;;;;;5011738;28;20432;-77
2023/05/10 07:22:16;;;;;;;0.40;0.40;;;15.20;99.90;;;;;;5020571;28;20431;-78
2023/05/10 07:24:43;;;;;;;1.80;0.40;;;15.60;99.90;;;;;;5013778;28;20431;-80
2023/05/10 07:27:10;;;;;;;0.40;0.40;;;15.80;99.90;;;;;;5014450;28;20435;-78
2023/05/10 07:29:37;;;;;;;0.60;0.60;;;16.10;99.90;;;;;;5020929;28;20427;-78
2023/05/10 07:32:04;;;;;;;0.65;0.65;;;16.70;99.90;;;;;;5021552;28;20467;-78
2023/05/10 07:34:31;;;;;;;0.40;0.40;;;16.70;99.90;;;;;;5015540;28;20430;-78
2023/05/10 07:36:58;;;;;;;0.45;0.45;;;17.10;99.90;;;;;;5014104;28;20436;-78
2023/05/10 07:39:26;;;;;;;0.45;0.40;;;17.20;99.90;;;;;;5031388;28;20504;-78
2023/05/10 07:41:55;;;;;;;0.60;0.50;;;17.10;99.90;;;;;;5021240;28;20431;-78
2023/05/10 07:44:22;;;;;;;0.90;0.63;;;17.00;99.90;;;;;;5020896;28;20930;-76
2023/05/10 07:46:49;;;;;;;0.50;0.50;;;16.90;99.90;;;;;;5014681;28;20438;-76
2023/05/10 07:49:16;;;;;;;0.43;0.43;;;16.50;99.90;;;;;;5011956;28;20509;-77
2023/05/10 07:51:43;;;;;;;0.40;0.40;;;16.20;99.90;;;;;;5018398;28;20431;-76
2023/05/10 07:54:10;;;;;;;1.50;0.50;;;16.30;99.90;;;;;;5016226;28;20493;-77
2023/05/10 07:56:37;;;;;;;0.47;0.47;;;16.40;99.90;;;;;;5015907;28;20439;-77
2023/05/10 07:59:04;;;;;;;0.20;0.20;;;16.60;99.90;;;;;;5015059;28;20467;-77
2023/05/10 08:01:33;;;;;;;0.20;0.20;;;16.80;99.90;;;;;;5023338;28;20443;-77
2023/05/10 08:04:02;;;;;;;0.40;0.40;;;17.00;99.90;;;;;;5018271;28;20438;-77
2023/05/10 08:06:29;;;;;;;0.32;0.32;;;17.20;99.90;;;;;;5020395;28;20530;-77
2023/05/10 08:08:56;;;;;;;0.60;0.45;;;17.50;99.90;;;;;;5015865;28;20466;-77
2023/05/10 08:11:23;;;;;;;0.20;0.20;;;17.50;99.90;;;;;;5015595;28;20435;-77
2023/05/10 08:13:51;;;;;;;0.90;0.30;;;17.60;99.90;;;;;;5017704;28;20438;-77
2023/05/10 08:16:17;;;;;;;0.38;0.38;;;17.50;99.90;;;;;;5019553;28;20432;-78
2023/05/10 08:18:46;;;;;;;0.30;0.30;;;17.40;99.90;;;;;;5013622;28;20810;-77
2023/05/10 08:21:14;;;;;;;0.30;0.30;;;17.30;99.90;;;;;;5018558;28;20430;-77
2023/05/10 08:23:41;;;;;;;0.40;0.40;;;17.10;99.90;;;;;;5019749;28;20431;-78
2023/05/10 08:26:08;;;;;;;0.40;0.40;;;17.00;99.90;;;;;;5019766;28;20652;-77
2023/05/10 08:28:34;;;;;;;0.32;0.32;;;16.80;99.90;;;;;;5013447;28;20929;-77
2023/05/10 08:31:01;;;;;;;0.20;0.20;;;16.60;99.90;;;;;;5016047;28;20434;-77
2023/05/10 08:33:28;;;;;;;0.80;0.35;;;16.60;99.90;;;;;;5013015;28;20430;-77
2023/05/10 08:35:54;;;;;;;0.35;0.35;;;16.40;99.90;;;;;;5018908;28;20919;-77
2023/05/10 08:38:24;;;;;;;0.50;0.50;;;16.30;99.90;;;;;;5021478;28;20933;-77
2023/05/10 08:40:58;;;;;;;1.50;0.70;;;16.10;99.90;;;;;;5018981;28;20446;-78
2023/05/10 08:43:29;;;;;;;0.40;0.40;;;16.00;99.90;;;;;;5017730;28;20423;-78
2023/05/10 08:45:59;;;;;;;2.30;0.50;;;15.80;99.90;;;;;;5012497;28;20447;-78
2023/05/10 08:48:28;;;;;;;0.60;0.60;;;15.40;99.90;;;;;;5020781;28;20525;-77
2023/05/10 08:50:58;;;;;;;0.50;0.50;;;15.00;99.90;;;;;;5018235;28;21066;-77
2023/05/10 08:53:28;;;;;;;0.47;0.47;;;14.60;99.90;;;;;;5019352;28;20434;-76
2023/05/10 08:55:55;;;;;;;1.02;0.60;;;14.30;99.90;;;;;;5013174;28;20428;-75
2023/05/10 08:58:22;;;;;;;0.40;0.40;;;14.00;99.90;;;;;;5004909;28;20440;-76
2023/05/10 09:00:52;;;;;;;0.20;0.20;;;13.80;99.90;;;;;;5019414;28;20783;-76
2023/05/10 09:03:19;;;;;;;0.30;0.30;;;13.60;99.90;;;;;;5018012;28;20467;-76
2023/05/10 09:05:48;;;;;;;0.40;0.40;;;13.60;99.90;;;;;;5021397;28;20430;-76
2023/05/10 09:08:18;;;;;;;0.30;0.30;;;13.70;99.90;;;;;;5018536;28;20439;-76
2023/05/10 09:10:47;;;;;;;1.30;0.50;;;13.80;99.90;;;;;;5032486;28;20434;-76
2023/05/10 09:13:15;;;;;;;0.30;0.30;;;14.10;99.90;;;;;;5028914;28;20487;-76
2023/05/10 09:15:43;;;;;;;0.50;0.50;;;14.40;99.90;;;;;;5018798;28;20435;-76
2023/05/10 09:18:10;;;;;;;0.20;0.20;;;15.00;99.90;;;;;;5017724;28;20438;-76
2023/05/10 09:20:38;;;;;;;0.60;0.45;;;15.20;99.90;;;;;;5017133;28;20917;-77
2023/05/10 09:23:05;;;;;;;1.90;0.30;;;15.40;99.90;;;;;;5023738;28;20430;-76
2023/05/10 09:25:35;;;;;;;0.28;0.28;;;15.40;99.90;;;;;;5015740;28;20439;-77
2023/05/10 09:28:02;;;;;;;0.20;0.20;;;15.30;99.90;;;;;;5021593;28;20450;-77
2023/05/10 09:30:31;;;;;;;0.40;0.40;;;15.10;99.90;;;;;;5014266;28;20436;-77
2023/05/10 09:32:59;;;;;;;1.10;0.38;;;14.80;99.90;;;;;;5009391;28;20953;-77
2023/05/10 09:35:28;;;;;;;0.20;0.20;;;14.80;99.90;;;;;;5019620;28;20432;-77
2023/05/10 09:38:02;;;;;;;0.60;0.50;;;14.80;99.90;;;;;;5014440;28;20545;-77
2023/05/10 09:40:30;;;;;;;0.35;0.35;;;14.90;99.90;;;;;;5020289;28;20521;-77
2023/05/10 09:42:57;;;;;;;0.20;0.20;;;15.10;99.90;;;;;;5016263;28;21020;-77
2023/05/10 09:45:27;;;;;;;0.10;0.10;;;15.60;99.90;;;;;;5021765;28;20525;-77
2023/05/10 09:47:54;;;;;;;0.20;0.20;;;16.40;99.90;;;;;;5020670;28;20876;-76
2023/05/10 09:50:22;;;;;;;0.10;0.10;;;17.00;99.90;;;;;;5036147;28;20876;-76
2023/05/10 09:52:50;;;;;;;0.20;0.20;;;17.50;99.90;;;;;;5019799;28;20484;-77
2023/05/10 09:55:22;;;;;;;0.20;0.20;;;17.80;99.90;;;;;;5020578;28;20796;-77
2023/05/10 09:57:58;;;;;;;0.38;0.38;;;18.30;99.90;;;;;;5016477;28;20427;-77
2023/05/10 10:00:25;;;;;;;0.65;0.60;;;18.30;99.90;;;;;;5019789;28;20976;-77
2023/05/10 10:02:57;;;;;;;0.20;0.20;;;18.60;99.90;;;;;;5020860;28;20891;-77
2023/05/10 10:05:33;;;;;;;0.25;0.25;;;18.80;99.90;;;;;;5019596;28;20502;-76
2023/05/10 10:08:02;;;;;;;0.20;0.20;;;19.00;99.90;;;;;;5020606;28;20909;-76
2023/05/10 10:10:32;;;;;;;0.27;0.20;;;19.30;99.90;;;;;;5014927;28;20431;-77
2023/05/10 10:12:59;;;;;;;0.20;0.20;;;19.70;99.90;;;;;;5014410;28;20468;-78
2023/05/10 10:15:26;;;;;;;0.30;0.30;;;20.00;99.90;;;;;;5024483;28;20443;-77
2023/05/10 10:17:54;;;;;;;0.10;0.10;;;20.40;99.90;;;;;;5014696;28;20439;-76
2023/05/10 10:20:22;;;;;;;0.28;0.28;;;20.50;99.90;;;;;;5020209;28;20513;-78
2023/05/10 10:22:52;;;;;;;0.10;0.10;;;20.10;99.90;;;;;;5025436;28;20470;-78
2023/05/10 10:25:23;;;;;;;0.20;0.20;;;19.90;99.90;;;;;;5018690;28;20427;-78
2023/05/10 10:27:53;;;;;;;0.20;0.20;;;19.40;99.90;;;;;;5020873;28;20851;-78
2023/05/10 10:30:42;;;;;;;0.30;0.30;;;18.90;99.90;;;;;;5020552;28;20485;-75
2023/05/10 10:33:36;;;;;;;0.17;0.17;;;18.50;99.90;;;;;;5019658;28;20975;-74
2023/05/10 10:36:03;;;;;;;0.15;0.15;;;18.10;99.90;;;;;;5018154;28;20485;-75
2023/05/10 10:38:38;;;;;;;0.20;0.20;;;17.80;99.90;;;;;;5014596;28;20930;-79
2023/05/10 10:41:10;;;;;;;4.80;0.60;;;17.70;99.90;;;;;;5018716;28;21036;-78
2023/05/10 10:43:37;;;;;;;0.20;0.20;;;17.70;99.90;;;;;;5021473;28;20434;-78
2023/05/10 10:46:16;;;;;;;0.17;0.17;;;17.60;99.90;;;;;;5035555;28;20921;-75
2023/05/10 10:49:09;;;;;;;0.20;0.20;;;17.50;99.90;;;;;;5032417;28;20436;-75
2023/05/10 10:51:39;;;;;;;0.40;0.40;;;17.50;99.90;;;;;;5009900;28;20503;-76
2023/05/10 10:54:10;;;;;;;0.20;0.20;;;17.70;99.90;;;;;;5021659;28;20443;-75
2023/05/10 10:56:37;;;;;;;0.20;0.20;;;17.70;99.90;;;;;;5035742;28;20435;-76
2023/05/10 10:59:04;;;;;;;0.10;0.10;;;17.80;99.90;;;;;;5017240;28;20929;-75
2023/05/10 11:01:37;;;;;;;0.30;0.30;;;17.70;99.90;;;;;;5021122;28;20476;-76
2023/05/10 11:04:03;;;;;;;0.23;0.20;;;17.90;99.90;;;;;;5009782;28;20442;-76
2023/05/10 11:06:32;;;;;;;0.20;0.20;;;18.00;99.90;;;;;;5016971;28;20448;-75
2023/05/10 11:09:00;;;;;;;0.10;0.10;;;17.90;99.90;;;;;;5024031;28;20530;-76
2023/05/10 11:11:30;;;;;;;0.30;0.30;;;17.90;99.90;;;;;;5017683;28;20495;-76
2023/05/10 11:14:06;;;;;;;0.13;0.13;;;18.60;99.90;;;;;;5019708;28;20517;-75
2023/05/10 11:16:43;;;;;;;0.38;0.38;;;19.60;99.90;;;;;;5012547;28;20447;-76
2023/05/10 11:19:12;;;;;;;0.30;0.30;;;20.30;99.90;;;;;;5017048;28;20434;-76
2023/05/10 11:21:49;;;;;;;0.20;0.20;;;20.40;99.90;;;;;;5023493;28;20434;-76
2023/05/10 11:24:19;;;;;;;0.80;0.30;;;20.40;99.90;;;;;;5019128;28;20446;-77
2023/05/10 11:27:02;;;;;;;0.17;0.17;;;20.40;99.90;;;;;;5014232;28;20840;-76
2023/05/10 11:29:30;;;;;;;0.20;0.20;;;20.40;99.90;;;;;;5020832;28;20439;-78
2023/05/10 11:31:58;;;;;;;0.25;0.25;;;20.20;99.90;;;;;;5024287;28;20439;-76
2023/05/10 11:34:28;;;;;;;0.10;0.10;;;20.30;99.90;;;;;;5030094;28;20427;-77
2023/05/10 11:36:55;;;;;;;0.20;0.20;;;20.30;99.90;;;;;;5032027;28;20504;-76
2023/05/10 11:39:33;;;;;;;0.20;0.20;;;20.50;99.90;;;;;;5020101;28;20439;-78
2023/05/10 11:42:00;;;;;;;0.27;0.27;;;20.80;99.90;;;;;;5019094;28;20445;-76
2023/05/10 11:44:33;;;;;;;0.28;0.28;;;20.90;99.90;;;;;;5022678;28;20431;-78
2023/05/10 11:47:06;;;;;;;0.20;0.20;;;21.10;99.90;;;;;;5023245;28;20447;-76
2023/05/10 11:49:33;;;;;;;0.13;0.13;;;21.60;99.90;;;;;;5019048;28;20441;-76
2023/05/10 11:52:14;;;;;;;0.20;0.20;;;21.90;99.90;;;;;;5018656;28;20439;-78
2023/05/10 11:54:53;;;;;;;0.20;0.20;;;22.30;99.90;;;;;;5019528;28;20449;-77
2023/05/10 11:57:25;;;;;;;0.20;0.20;;;23.30;99.90;;;;;;5018252;28;20433;-77
2023/05/10 11:59:57;;;;;;;0.20;0.20;;;23.50;99.90;;;;;;5020408;28;20478;-77
2023/05/10 12:02:24;;;;;;;0.20;0.20;;;23.50;99.90;;;;;;5036018;28;20454;-78
2023/05/10 12:04:51;;;;;;;0.20;0.20;;;23.40;99.90;;;;;;5022527;28;20435;-78
2023/05/10 12:07:18;;;;;;;0.20;0.20;;;23.40;99.90;;;;;;5014975;28;20941;-78
2023/05/10 12:10:02;;;;;;;0.17;0.17;;;23.20;99.90;;;;;;5032093;28;20557;-76
2023/05/10 12:12:39;;;;;;;0.30;0.30;;;23.00;99.90;;;;;;5014695;28;20511;-77
2023/05/10 12:15:11;;;;;;;0.20;0.20;;;23.00;99.90;;;;;;5019729;28;20438;-76
2023/05/10 12:17:40;;;;;;;0.20;0.20;;;23.40;99.90;;;;;;5020797;28;20528;-77
2023/05/10 12:20:17;;;;;;;0.20;0.20;;;23.80;99.80;;;;;;5023906;28;20435;-76
2023/05/10 12:22:55;;;;;;;0.20;0.20;;;23.70;98.70;;;;;;5014327;28;20440;-77
2023/05/10 12:25:35;;;;;;;0.30;0.30;;;23.70;98.30;;;;;;5018978;28;20442;-76
2023/05/10 12:28:08;;;;;;;0.15;0.15;;;23.80;98.90;;;;;;5034171;28;20441;-78
2023/05/10 12:30:36;;;;;;;0.30;0.30;;;23.90;98.50;;;;;;5018195;28;20520;-77
2023/05/10 12:33:22;;;;;;;0.20;0.20;;;24.40;98.70;;;;;;5014790;28;20432;-76
2023/05/10 12:35:51;;;;;;;0.20;0.20;;;24.20;98.00;;;;;;5015941;28;20451;-77
2023/05/10 12:38:38;;;;;;;0.20;0.20;;;24.40;96.80;;;;;;5012295;28;20510;-76
2023/05/10 12:41:08;;;;;;;0.20;0.20;;;23.90;97.10;;;;;;5014753;28;20430;-78
2023/05/10 12:43:35;;;;;;;0.80;0.30;;;23.30;97.20;;;;;;5012008;28;21139;-77
2023/05/10 12:46:05;;;;;;;0.22;0.22;;;23.40;97.30;;;;;;5019055;28;20467;-77
2023/05/10 12:48:36;;;;;;;0.20;0.20;;;23.30;98.20;;;;;;5012171;28;20434;-77
2023/05/10 12:51:05;;;;;;;0.30;0.30;;;22.90;97.80;;;;;;5012954;28;20433;-77
2023/05/10 12:53:32;;;;;;;0.40;0.20;;;22.50;97.90;;;;;;5023523;28;20497;-76
2023/05/10 12:55:58;;;;;;;0.40;0.40;;;22.00;98.20;;;;;;5017746;28;20500;-76
2023/05/10 12:58:25;;;;;;;0.10;0.10;;;21.60;98.80;;;;;;5024067;28;20484;-76
2023/05/10 13:01:02;;;;;;;3.30;0.20;;;21.50;98.80;;;;;;5016692;28;20439;-78